createdAt,value
2023-04-21T00:01:53.256Z,73.34
2023-04-21T00:04:21.029Z,73.57
2023-04-21T00:06:48.755Z,73.28
2023-04-21T00:09:17.166Z,73.61
2023-04-21T00:11:45.040Z,73.55
2023-04-21T00:14:14.169Z,73.57
2023-04-21T00:16:41.909Z,73.78
2023-04-21T00:19:09.580Z,73.86
2023-04-21T00:21:37.306Z,73.91
2023-04-21T00:24:05.519Z,74.05
2023-04-21T00:26:33.268Z,74.26
2023-04-21T00:29:01.053Z,74.35
2023-04-21T00:31:30.234Z,74.82
2023-04-21T00:33:57.992Z,74.78
2023-04-21T00:36:28.163Z,75.27
2023-04-21T00:38:55.828Z,75.53
2023-04-21T00:41:23.634Z,75.44
2023-04-21T00:44:04.946Z,75.30
2023-04-21T00:46:34.397Z,75.73
2023-04-21T00:49:05.199Z,75.79
2023-04-21T00:51:34.620Z,76.19
2023-04-21T00:54:04.297Z,76.14
2023-04-21T00:56:33.175Z,76.17
2023-04-21T00:59:01.560Z,76.31
2023-04-21T01:01:30.054Z,76.22
2023-04-21T01:04:00.926Z,76.11
2023-04-21T01:06:29.740Z,76.10
2023-04-21T01:08:57.664Z,76.07
2023-04-21T01:11:26.364Z,76.55
2023-04-21T01:13:54.799Z,76.43
2023-04-21T01:16:23.237Z,76.35
2023-04-21T01:18:52.092Z,76.47
2023-04-21T01:21:21.996Z,76.74
2023-04-21T01:23:51.204Z,76.75
2023-04-21T01:26:19.611Z,76.62
2023-04-21T01:28:47.668Z,76.73
2023-04-21T01:31:15.688Z,76.72
2023-04-21T01:33:43.472Z,76.57
2023-04-21T01:36:11.459Z,76.72
2023-04-21T01:38:40.795Z,76.67
2023-04-21T01:41:10.839Z,76.66
2023-04-21T01:43:39.452Z,76.76
2023-04-21T01:46:08.085Z,76.69
2023-04-21T01:48:37.852Z,76.82
2023-04-21T01:51:05.676Z,76.45
2023-04-21T01:53:33.461Z,76.53
2023-04-21T01:56:01.125Z,76.55
2023-04-21T01:58:30.328Z,76.68
2023-04-21T02:00:58.076Z,76.57
2023-04-21T02:03:26.132Z,76.60
2023-04-21T02:05:53.937Z,76.52
2023-04-21T02:08:21.644Z,76.52
2023-04-21T02:10:49.395Z,76.74
2023-04-21T02:13:17.088Z,76.80
2023-04-21T02:15:46.332Z,76.79
2023-04-21T02:18:14.978Z,76.56
2023-04-21T02:20:42.882Z,76.76
2023-04-21T02:23:10.787Z,76.89
2023-04-21T02:25:38.504Z,76.85
2023-04-21T02:28:06.231Z,77.00
2023-04-21T02:30:35.071Z,76.66
2023-04-21T02:33:04.195Z,76.84
2023-04-21T02:35:33.767Z,76.56
2023-04-21T02:38:07.216Z,77.06
2023-04-21T02:40:34.881Z,77.08
2023-04-21T02:43:02.989Z,77.20
2023-04-21T02:45:30.684Z,76.83
2023-04-21T02:47:59.254Z,76.68
2023-04-21T02:50:28.507Z,77.03
2023-04-21T02:52:56.257Z,76.93
2023-04-21T02:55:24.910Z,76.88
2023-04-21T02:57:52.646Z,76.96
2023-04-21T03:00:20.638Z,76.80
2023-04-21T03:02:48.423Z,76.61
2023-04-21T03:05:16.234Z,76.87
2023-04-21T03:07:45.827Z,76.84
2023-04-21T03:10:13.556Z,76.84
2023-04-21T03:12:41.239Z,76.51
2023-04-21T03:15:09.220Z,76.67
2023-04-21T03:17:36.915Z,76.81
2023-04-21T03:20:07.865Z,76.65
2023-04-21T03:22:35.632Z,76.62
2023-04-21T03:25:07.421Z,76.37
2023-04-21T03:27:35.684Z,76.56
2023-04-21T03:30:03.964Z,76.84
2023-04-21T03:32:31.678Z,76.48
2023-04-21T03:34:59.413Z,76.67
2023-04-21T03:37:27.198Z,76.83
2023-04-21T03:39:54.872Z,76.65
2023-04-21T03:42:24.051Z,76.31
2023-04-21T03:44:51.770Z,76.50
2023-04-21T03:47:19.532Z,76.40
2023-04-21T03:49:47.335Z,76.40
2023-04-21T03:52:15.022Z,76.41
2023-04-21T03:54:42.716Z,76.41
2023-04-21T03:57:10.480Z,76.25
2023-04-21T03:59:39.573Z,76.55
2023-04-21T04:02:07.450Z,76.55
2023-04-21T04:04:35.556Z,76.28
2023-04-21T04:07:03.327Z,76.52
2023-04-21T04:09:30.973Z,76.29
2023-04-21T04:11:58.726Z,76.55
2023-04-21T04:14:26.537Z,76.64
2023-04-21T04:16:55.655Z,76.30
2023-04-21T04:19:23.368Z,76.44
2023-04-21T04:21:51.005Z,76.27
2023-04-21T04:24:19.475Z,76.58
2023-04-21T04:26:47.975Z,76.54
2023-04-21T04:29:16.245Z,76.45
2023-04-21T04:31:43.960Z,76.24
2023-04-21T04:34:13.380Z,76.57
2023-04-21T04:36:42.303Z,76.47
2023-04-21T04:39:10.301Z,76.36
2023-04-21T04:41:38.105Z,76.67
2023-04-21T04:44:06.217Z,76.88
2023-04-21T04:46:34.041Z,76.87
2023-04-21T04:49:01.887Z,76.62
2023-04-21T04:51:32.677Z,77.08
2023-04-21T04:54:00.486Z,77.01
2023-04-21T04:56:28.281Z,77.16
2023-04-21T04:58:56.001Z,77.01
2023-04-21T05:01:29.292Z,77.26
2023-04-21T05:03:57.440Z,76.89
2023-04-21T05:06:25.271Z,76.93
2023-04-21T05:08:54.371Z,76.80
2023-04-21T05:11:22.070Z,77.19
2023-04-21T05:13:49.828Z,76.98
2023-04-21T05:16:17.615Z,76.88
2023-04-21T05:18:45.331Z,77.09
2023-04-21T05:21:13.013Z,77.15
2023-04-21T05:23:40.975Z,76.99
2023-04-21T05:26:10.075Z,77.04
2023-04-21T05:28:38.127Z,77.13
2023-04-21T05:31:07.119Z,77.20
2023-04-21T05:33:34.836Z,77.11
2023-04-21T05:36:02.585Z,77.24
2023-04-21T05:38:30.347Z,76.87
2023-04-21T05:40:58.035Z,77.10
2023-04-21T05:43:27.224Z,77.21
2023-04-21T05:45:55.097Z,76.92
2023-04-21T05:48:23.454Z,77.02
2023-04-21T05:50:51.180Z,77.18
2023-04-21T05:53:18.958Z,77.10
2023-04-21T05:55:46.632Z,77.37
2023-04-21T05:58:14.303Z,77.41
2023-04-21T06:00:43.454Z,77.32
2023-04-21T06:03:11.266Z,77.94
2023-04-21T06:05:39.083Z,78.23
2023-04-21T06:08:07.045Z,77.79
2023-04-21T06:10:34.741Z,78.29
2023-04-21T06:13:02.419Z,78.09
2023-04-21T06:15:30.182Z,78.22
2023-04-21T06:17:59.395Z,78.32
2023-04-21T06:20:27.165Z,78.79
2023-04-21T06:22:54.950Z,78.65
2023-04-21T06:25:23.019Z,78.61
2023-04-21T06:27:50.948Z,78.36
2023-04-21T06:30:18.806Z,78.52
2023-04-21T06:32:47.703Z,78.53
2023-04-21T06:35:17.305Z,78.60
2023-04-21T06:37:45.051Z,78.25
2023-04-21T06:40:15.946Z,78.23
2023-04-21T06:42:43.857Z,78.32
2023-04-21T06:45:12.427Z,78.21
2023-04-21T06:47:40.155Z,77.97
2023-04-21T06:50:08.921Z,78.46
2023-04-21T06:52:38.003Z,78.31
2023-04-21T06:55:06.891Z,77.88
2023-04-21T06:57:34.779Z,77.97
2023-04-21T07:00:02.612Z,77.88
2023-04-21T07:02:30.398Z,77.85
2023-04-21T07:04:58.139Z,77.72
2023-04-21T07:07:25.928Z,77.62
2023-04-21T07:09:55.100Z,77.95
2023-04-21T07:12:22.983Z,77.45
2023-04-21T07:14:50.838Z,77.57
2023-04-21T07:17:18.544Z,77.11
2023-04-21T07:19:46.344Z,77.48
2023-04-21T07:22:14.031Z,77.61
2023-04-21T07:24:41.760Z,77.67
2023-04-21T07:27:10.803Z,77.43
2023-04-21T07:29:38.512Z,77.28
2023-04-21T07:32:06.352Z,77.46
2023-04-21T07:34:34.083Z,77.61
2023-04-21T07:37:01.803Z,77.43
2023-04-21T07:39:29.466Z,77.30
2023-04-21T07:41:57.122Z,77.40
2023-04-21T07:44:26.259Z,77.42
2023-04-21T07:46:53.932Z,77.25
2023-04-21T07:49:21.765Z,77.04
2023-04-21T07:51:50.067Z,76.54
2023-04-21T07:54:17.753Z,76.74
2023-04-21T07:56:45.455Z,76.77
2023-04-21T07:59:13.095Z,76.32
2023-04-21T08:01:42.127Z,76.41
2023-04-21T08:04:10.560Z,76.24
2023-04-21T08:06:38.759Z,75.34
2023-04-21T08:09:06.535Z,75.66
2023-04-21T08:11:34.540Z,74.89
2023-04-21T08:14:03.538Z,75.08
2023-04-21T08:16:31.622Z,74.99
2023-04-21T08:19:01.229Z,74.92
2023-04-21T08:21:31.188Z,74.35
2023-04-21T08:23:59.075Z,74.65
2023-04-21T08:26:27.077Z,74.65
2023-04-21T08:28:55.162Z,75.12
2023-04-21T08:31:23.235Z,74.37
2023-04-21T08:34:01.167Z,73.99
2023-04-21T08:36:32.021Z,74.15
2023-04-21T08:39:00.047Z,74.82
2023-04-21T08:41:27.896Z,74.89
2023-04-21T08:43:55.707Z,73.42
2023-04-21T08:46:25.455Z,74.25
2023-04-21T08:48:55.064Z,74.33
2023-04-21T08:51:24.922Z,73.90
2023-04-21T08:53:55.802Z,74.13
2023-04-21T08:56:25.660Z,73.58
2023-04-21T08:58:53.521Z,73.38
2023-04-21T09:01:21.826Z,73.81
2023-04-21T09:03:49.790Z,74.11
2023-04-21T09:06:17.982Z,74.48
2023-04-21T09:08:56.657Z,73.74
2023-04-21T09:11:24.637Z,73.55
2023-04-21T09:13:52.939Z,73.00
2023-04-21T09:16:22.813Z,73.06
2023-04-21T09:18:51.605Z,72.28
2023-04-21T09:21:20.330Z,72.08
2023-04-21T09:23:49.200Z,72.48
2023-04-21T09:26:19.385Z,73.10
2023-04-21T09:28:49.010Z,72.31
2023-04-21T09:31:19.587Z,71.74
2023-04-21T09:33:57.859Z,72.33
2023-04-21T09:36:28.441Z,72.34
2023-04-21T09:41:33.910Z,71.90
2023-04-21T09:44:04.036Z,72.81
2023-04-21T09:46:34.521Z,72.13
2023-04-21T09:49:03.176Z,71.75
2023-04-21T09:51:42.715Z,71.33
2023-04-21T09:56:57.619Z,71.20
2023-04-21T09:59:27.726Z,71.92
2023-04-21T10:01:57.122Z,71.13
2023-04-21T10:04:26.631Z,71.22
2023-04-21T10:06:54.810Z,69.64
2023-04-21T10:09:23.950Z,70.79
2023-04-21T10:11:53.335Z,70.37
2023-04-21T10:14:21.420Z,69.95
2023-04-21T10:16:57.584Z,69.63
2023-04-21T10:19:26.919Z,69.55
2023-04-21T10:21:56.876Z,69.51
2023-04-21T10:24:24.732Z,69.26
2023-04-21T10:26:55.354Z,69.05
2023-04-21T10:29:40.201Z,68.33
2023-04-21T10:32:11.938Z,69.33
2023-04-21T10:34:40.614Z,70.23
2023-04-21T10:37:19.788Z,71.74
2023-04-21T10:39:53.688Z,71.27
2023-04-21T10:42:28.321Z,71.88
2023-04-21T10:45:04.156Z,71.57
2023-04-21T10:47:37.871Z,71.79
2023-04-21T10:50:17.105Z,70.91
2023-04-21T10:52:46.168Z,71.51
2023-04-21T10:55:15.755Z,71.97
2023-04-21T10:57:46.248Z,71.54
2023-04-21T11:00:17.788Z,71.02
2023-04-21T11:02:45.858Z,70.86
2023-04-21T11:05:13.733Z,70.90
2023-04-21T11:07:41.664Z,70.26
2023-04-21T11:10:11.215Z,70.67
2023-04-21T11:12:40.130Z,70.16
2023-04-21T11:15:11.043Z,70.14
2023-04-21T11:17:39.843Z,70.56
2023-04-21T11:20:09.066Z,71.02
2023-04-21T11:22:38.149Z,72.12
2023-04-21T11:25:06.761Z,71.85
2023-04-21T11:27:34.520Z,71.79
2023-04-21T11:30:04.844Z,72.92
2023-04-21T11:32:35.072Z,73.48
2023-04-21T11:35:04.647Z,72.09
2023-04-21T11:37:32.754Z,71.99
2023-04-21T11:40:01.311Z,72.49
2023-04-21T11:42:29.393Z,71.84
2023-04-21T11:44:57.649Z,70.69
2023-04-21T11:47:26.575Z,70.62
2023-04-21T11:49:57.129Z,71.93
2023-04-21T11:52:26.350Z,70.56
2023-04-21T11:54:57.540Z,71.84
2023-04-21T11:57:26.435Z,72.99
2023-04-21T11:59:54.328Z,72.51
2023-04-21T12:02:23.775Z,72.63
2023-04-21T12:05:06.976Z,71.59
2023-04-21T12:07:36.690Z,72.37
2023-04-21T12:10:10.511Z,72.84
2023-04-21T12:12:38.997Z,70.50
2023-04-21T12:15:07.785Z,71.61
2023-04-21T12:17:39.514Z,71.43
2023-04-21T12:20:10.314Z,68.92
2023-04-21T12:22:38.247Z,68.04
2023-04-21T12:25:06.961Z,68.09
2023-04-21T12:27:34.694Z,69.78
2023-04-21T12:30:03.291Z,68.14
2023-04-21T12:32:31.247Z,66.60
2023-04-21T12:35:00.539Z,66.69
2023-04-21T12:37:29.712Z,65.33
2023-04-21T12:39:57.500Z,62.02
2023-04-21T12:42:25.648Z,62.93
2023-04-21T12:44:53.671Z,61.18
2023-04-21T12:47:21.513Z,63.33
2023-04-21T12:49:49.267Z,62.50
2023-04-21T12:52:16.966Z,61.87
2023-04-21T12:54:46.144Z,62.14
2023-04-21T12:57:13.854Z,62.33
2023-04-21T12:59:41.986Z,62.58
2023-04-21T13:02:10.597Z,62.56
2023-04-21T13:04:39.286Z,61.86
2023-04-21T13:07:07.131Z,62.18
2023-04-21T13:09:34.952Z,61.00
2023-04-21T13:12:04.010Z,61.74
2023-04-21T13:14:31.692Z,60.63
2023-04-21T13:16:59.453Z,62.74
2023-04-21T13:19:28.663Z,62.90
2023-04-21T13:21:56.608Z,63.17
2023-04-21T13:24:25.901Z,62.21
2023-04-21T13:26:53.628Z,61.62
2023-04-21T13:29:22.798Z,61.64
2023-04-21T13:31:50.610Z,61.36
2023-04-21T13:34:18.424Z,60.70
2023-04-21T13:36:46.107Z,60.36
2023-04-21T13:39:14.168Z,60.48
2023-04-21T13:41:41.952Z,60.50
2023-04-21T13:44:09.644Z,60.52
2023-04-21T13:46:39.050Z,60.25
2023-04-21T13:49:07.513Z,61.04
2023-04-21T13:51:35.582Z,60.28
2023-04-21T13:54:03.308Z,60.10
2023-04-21T13:56:31.198Z,60.52
2023-04-21T13:58:59.451Z,58.38
2023-04-21T14:01:27.274Z,57.55
2023-04-21T14:03:57.121Z,58.23
2023-04-21T14:06:25.323Z,58.65
2023-04-21T14:08:53.255Z,57.49
2023-04-21T14:11:21.391Z,58.12
2023-04-21T14:14:07.518Z,57.70
2023-04-21T14:16:36.854Z,58.04
2023-04-21T14:19:06.130Z,60.40
2023-04-21T14:21:34.063Z,59.52
2023-04-21T14:24:01.771Z,57.86
2023-04-21T14:26:29.607Z,57.50
2023-04-21T14:28:57.430Z,57.68
2023-04-21T14:31:25.326Z,60.05
2023-04-21T14:33:53.132Z,59.40
2023-04-21T14:36:22.171Z,58.42
2023-04-21T14:38:51.086Z,59.66
2023-04-21T14:41:18.773Z,58.59
2023-04-21T14:43:47.697Z,58.11
2023-04-21T14:46:17.626Z,59.17
2023-04-21T14:48:45.418Z,57.00
2023-04-21T14:51:13.165Z,57.58
2023-04-21T14:53:42.272Z,58.05
2023-04-21T14:56:10.346Z,58.07
2023-04-21T14:58:37.988Z,57.82
2023-04-21T15:01:06.079Z,58.26
2023-04-21T15:03:33.860Z,57.56
2023-04-21T15:06:01.737Z,59.14
2023-04-21T15:08:29.461Z,56.45
2023-04-21T15:10:58.532Z,58.11
2023-04-21T15:13:26.340Z,57.74
2023-04-21T15:15:53.925Z,58.91
2023-04-21T15:18:21.940Z,57.58
2023-04-21T15:20:49.696Z,57.58
2023-04-21T15:23:17.544Z,58.75
2023-04-21T15:25:45.265Z,59.11
2023-04-21T15:28:14.439Z,59.24
2023-04-21T15:30:42.197Z,59.58
2023-04-21T15:33:11.524Z,59.12
2023-04-21T15:35:39.375Z,60.00
2023-04-21T15:38:07.266Z,59.21
2023-04-21T15:40:37.626Z,59.77
2023-04-21T15:43:11.455Z,60.27
2023-04-21T15:45:41.107Z,61.08
2023-04-21T15:48:09.151Z,61.54
2023-04-21T15:50:37.785Z,61.32
2023-04-21T15:53:06.052Z,61.98
2023-04-21T15:55:33.928Z,62.73
2023-04-21T15:58:01.816Z,62.35
2023-04-21T16:00:29.660Z,62.02
2023-04-21T16:02:59.689Z,62.69
2023-04-21T16:05:29.158Z,61.65
2023-04-21T16:07:57.173Z,62.11
2023-04-21T16:10:24.818Z,62.34
2023-04-21T16:12:52.588Z,62.82
2023-04-21T16:15:24.252Z,63.45
2023-04-21T16:17:52.884Z,62.48
2023-04-21T16:20:22.182Z,62.68
2023-04-21T16:22:50.313Z,63.07
2023-04-21T16:25:19.136Z,63.46
2023-04-21T16:27:46.915Z,64.71
2023-04-21T16:30:14.734Z,64.22
2023-04-21T16:32:42.460Z,64.03
2023-04-21T16:35:11.557Z,64.01
2023-04-21T16:37:42.707Z,63.48
2023-04-21T16:40:11.577Z,63.99
2023-04-21T16:42:39.673Z,63.80
2023-04-21T16:45:08.427Z,63.88
2023-04-21T16:47:41.732Z,64.91
2023-04-21T16:50:10.580Z,64.81
2023-04-21T16:52:38.204Z,63.83
2023-04-21T16:55:08.179Z,64.13
2023-04-21T17:00:00.125Z,66.20
2023-04-21T17:02:27.908Z,65.01
2023-04-21T17:04:55.681Z,64.36
2023-04-21T17:07:23.443Z,66.12
2023-04-21T17:09:51.782Z,65.90
2023-04-21T17:12:19.828Z,65.02
2023-04-21T17:14:48.485Z,66.38
2023-04-21T17:17:17.757Z,65.28
2023-04-21T17:19:45.703Z,65.10
2023-04-21T17:22:13.447Z,65.08
2023-04-21T17:24:52.505Z,66.22
2023-04-21T17:27:21.409Z,66.33
2023-04-21T17:29:49.383Z,66.06
2023-04-21T17:32:18.703Z,65.16
2023-04-21T17:34:46.667Z,64.92
2023-04-21T17:37:14.438Z,65.09
2023-04-21T17:39:42.179Z,65.10
2023-04-21T17:42:09.919Z,64.58
2023-04-21T17:44:37.927Z,64.56
2023-04-21T17:47:08.290Z,63.67
2023-04-21T17:49:37.716Z,64.05
2023-04-21T17:52:05.819Z,62.85
2023-04-21T17:54:33.439Z,64.02
2023-04-21T17:57:01.609Z,63.62
2023-04-21T17:59:29.402Z,63.78
2023-04-21T18:01:57.869Z,63.74
2023-04-21T18:04:27.328Z,63.97
2023-04-21T18:06:56.547Z,63.69
2023-04-21T18:09:25.340Z,62.68
2023-04-21T18:11:53.103Z,62.72
2023-04-21T18:14:21.350Z,64.70
2023-04-21T18:16:49.076Z,64.76
2023-04-21T18:19:18.318Z,65.71
2023-04-21T18:21:46.087Z,66.10
2023-04-21T18:24:15.259Z,64.65
2023-04-21T18:26:43.142Z,63.22
2023-04-21T18:29:10.801Z,62.16
2023-04-21T18:31:39.311Z,61.68
2023-04-21T18:34:08.698Z,62.03
2023-04-21T18:36:37.796Z,62.11
2023-04-21T18:39:06.386Z,61.80
2023-04-21T18:41:35.491Z,62.25
2023-04-21T18:44:03.485Z,62.51
2023-04-21T18:46:31.260Z,62.55
2023-04-21T18:48:59.070Z,62.34
2023-04-21T18:51:31.006Z,61.88
2023-04-21T18:53:59.006Z,62.01
2023-04-21T18:56:26.923Z,62.97
2023-04-21T18:58:56.711Z,65.05
2023-04-21T19:01:24.749Z,65.36
2023-04-21T19:03:53.124Z,65.05
2023-04-21T19:06:21.157Z,65.11
2023-04-21T19:08:51.169Z,63.60
2023-04-21T19:11:18.856Z,63.70
2023-04-21T19:13:48.147Z,63.69
2023-04-21T19:16:17.345Z,63.48
2023-04-21T19:18:45.345Z,63.99
2023-04-21T19:21:13.693Z,63.84
2023-04-21T19:23:41.849Z,64.91
2023-04-21T19:26:10.007Z,65.04
2023-04-21T19:28:37.720Z,65.17
2023-04-21T19:31:05.676Z,65.26
2023-04-21T19:33:34.792Z,65.24
2023-04-21T19:36:03.325Z,65.65
2023-04-21T19:38:31.075Z,65.04
2023-04-21T19:40:58.842Z,65.48
2023-04-21T19:43:26.759Z,66.13
2023-04-21T19:45:54.718Z,65.93
2023-04-21T19:48:22.722Z,66.06
2023-04-21T19:50:51.876Z,66.50
2023-04-21T19:53:19.620Z,66.46
2023-04-21T19:55:48.648Z,66.74
2023-04-21T19:58:28.156Z,66.32
2023-04-21T20:01:05.178Z,66.80
2023-04-21T20:03:33.174Z,68.17
2023-04-21T20:06:04.712Z,69.05
2023-04-21T20:08:32.477Z,69.53
2023-04-21T20:11:00.207Z,70.26
2023-04-21T20:13:27.965Z,71.11
2023-04-21T20:15:57.378Z,71.75
2023-04-21T20:18:25.198Z,72.73
2023-04-21T20:20:52.992Z,71.96
2023-04-21T20:23:22.214Z,71.46
2023-04-21T20:25:49.934Z,72.11
2023-04-21T20:28:17.629Z,71.65
2023-04-21T20:30:45.625Z,72.58
2023-04-21T20:33:13.392Z,73.90
2023-04-21T20:35:44.126Z,74.04
2023-04-21T20:38:11.965Z,74.49
2023-04-21T20:40:41.194Z,75.11
2023-04-21T20:43:10.267Z,76.14
2023-04-21T20:45:38.761Z,76.78
2023-04-21T20:48:06.734Z,76.56
2023-04-21T20:50:34.526Z,75.96
2023-04-21T20:53:02.341Z,76.04
2023-04-21T20:55:30.157Z,76.38
2023-04-21T20:57:59.600Z,77.16
2023-04-21T21:00:27.616Z,77.06
2023-04-21T21:02:55.524Z,77.01
2023-04-21T21:05:23.592Z,77.29
2023-04-21T21:07:51.343Z,77.12
2023-04-21T21:10:19.226Z,77.28
2023-04-21T21:12:46.963Z,77.44
2023-04-21T21:15:16.163Z,77.21
2023-04-21T21:17:43.984Z,77.43
2023-04-21T21:20:12.449Z,77.71
2023-04-21T21:22:40.227Z,77.33
2023-04-21T21:25:08.433Z,77.84
2023-04-21T21:27:36.200Z,76.27
2023-04-21T21:30:04.091Z,75.96
2023-04-21T21:32:33.343Z,75.49
2023-04-21T21:35:01.121Z,74.22
2023-04-21T21:37:28.898Z,74.85
2023-04-21T21:39:56.635Z,74.70
2023-04-21T21:42:24.365Z,74.79
2023-04-21T21:44:52.040Z,76.63
2023-04-21T21:47:19.696Z,76.65
2023-04-21T21:49:48.826Z,75.33
2023-04-21T21:52:16.549Z,75.16
2023-04-21T21:54:44.271Z,76.62
2023-04-21T21:57:11.947Z,77.00
2023-04-21T21:59:39.789Z,77.39
2023-04-21T22:02:07.693Z,76.80
2023-04-21T22:04:35.924Z,77.84
2023-04-21T22:07:05.176Z,78.04
2023-04-21T22:09:32.925Z,78.20
2023-04-21T22:12:01.108Z,77.82
2023-04-21T22:14:29.928Z,79.23
2023-04-21T22:16:58.980Z,80.16
2023-04-21T22:19:26.689Z,80.91
2023-04-21T22:21:54.385Z,80.60
2023-04-21T22:24:23.472Z,80.50
2023-04-21T22:26:51.090Z,81.04
2023-04-21T22:29:18.926Z,80.88
2023-04-21T22:31:46.736Z,81.44
2023-04-21T22:34:16.684Z,81.56
2023-04-21T22:36:44.468Z,81.38
2023-04-21T22:39:12.182Z,80.99
2023-04-21T22:41:41.244Z,81.65
2023-04-21T22:44:08.984Z,81.60
2023-04-21T22:46:36.716Z,81.95
2023-04-21T22:49:05.210Z,81.16
2023-04-21T22:51:33.237Z,81.23
2023-04-21T22:54:01.415Z,81.46
2023-04-21T22:56:29.961Z,81.20
2023-04-21T22:58:59.154Z,81.15
2023-04-21T23:01:26.916Z,80.83
2023-04-21T23:03:54.815Z,80.72
2023-04-21T23:06:22.708Z,81.07
2023-04-21T23:08:50.471Z,80.92
2023-04-21T23:11:18.184Z,80.80
2023-04-21T23:13:45.931Z,80.38
2023-04-21T23:16:15.157Z,80.28
2023-04-21T23:18:42.988Z,80.15
2023-04-21T23:21:10.856Z,79.84
2023-04-21T23:23:38.585Z,80.07
2023-04-21T23:26:06.646Z,80.00
2023-04-21T23:28:34.334Z,79.82
2023-04-21T23:31:01.998Z,80.45
2023-04-21T23:33:31.594Z,80.20
2023-04-21T23:35:59.346Z,79.49
2023-04-21T23:38:27.108Z,80.35
2023-04-21T23:40:54.754Z,80.39
2023-04-21T23:43:22.580Z,80.49
2023-04-21T23:45:50.533Z,80.23
2023-04-21T23:48:18.289Z,80.42
2023-04-21T23:50:47.485Z,80.35
2023-04-21T23:53:15.384Z,80.30
2023-04-21T23:55:43.260Z,80.75
2023-04-21T23:58:11.063Z,80.09
